Time;durP1;ratioP1;P1;durP2;ratioP2;P2;SDS_P1;SDS_P2;PMS_P1;PMS_P2;Temp;Humidity;BMP_temperature;BMP_pressure;BME280_temperature;BME280_humidity;BME280_pressure;Samples;Min_cycle;Max_cycle;Signal;HPM_P1;HPM_P2
2023/12/07 00:00:25;;;;;;;;;;;;;;;25.48;42.20;94393.56;4995560;28;7245;-86
2023/12/07 00:02:52;;;;;;;;;;;;;;;25.46;42.35;94393.34;4995621;28;8572;-85
2023/12/07 00:05:17;;;;;;;;;;;;;;;25.53;42.23;94390.03;4978793;28;9168;-85
2023/12/07 00:07:45;;;;;;;;;;;;;;;25.52;41.65;94388.53;4975887;28;7229;-85
2023/12/07 00:10:11;;;;;;;;;;;;;;;25.53;41.70;94387.28;4979558;28;9017;-85
2023/12/07 00:12:47;;;;;;;;;;;;;;;25.50;41.67;94393.03;4979356;28;7412;-85
2023/12/07 00:15:13;;;;;;;;;;;;;;;25.48;42.21;94401.81;4978440;28;8704;-86
2023/12/07 00:17:43;;;;;;;;;;;;;;;25.51;41.83;94397.31;4998946;28;8061;-85
2023/12/07 00:20:12;;;;;;;;;;;;;;;25.51;42.36;94400.81;4977943;28;7270;-86
2023/12/07 00:22:44;;;;;;;;;;;;;;;25.48;42.04;94392.81;4978869;28;8713;-85
2023/12/07 00:25:10;;;;;;;;;;;;;;;25.48;42.19;94392.81;4986424;28;8723;-85
2023/12/07 00:27:36;;;;;;;;;;;;;;;25.45;41.94;94388.34;4997194;28;9005;-86
2023/12/07 00:30:04;;;;;;;;;;;;;;;25.51;41.86;94386.28;4999132;28;8815;-85
2023/12/07 00:32:32;;;;;;;;;;;;;;;25.48;41.78;94384.56;4980992;28;7365;-85
2023/12/07 00:35:07;;;;;;;;;;;;;;;25.52;41.79;94385.78;4978196;28;10011;-85
2023/12/07 00:37:38;;;;;;;;;;;;;;;25.55;41.78;94382.00;4979192;28;8742;-86
2023/12/07 00:40:10;;;;;;;;;;;;;;;25.50;41.81;94373.78;4999141;28;9101;-85
2023/12/07 00:42:47;;;;;;;;;;;;;;;25.54;41.36;94375.00;4993542;28;7058;-85
2023/12/07 00:45:13;;;;;;;;;;;;;;;25.50;41.97;94360.00;4994237;28;9108;-86
2023/12/07 00:47:44;;;;;;;;;;;;;;;25.52;41.96;94366.50;4977684;28;8649;-86
2023/12/07 00:50:14;;;;;;;;;;;;;;;25.53;41.42;94372.75;4985542;28;8793;-85
2023/12/07 00:52:41;;;;;;;;;;;;;;;25.47;41.64;94366.53;4994108;28;8693;-85
2023/12/07 00:55:16;;;;;;;;;;;;;;;25.53;41.58;94375.50;4995710;28;8985;-88
2023/12/07 00:57:42;;;;;;;;;;;;;;;25.52;41.67;94380.28;4996805;28;8611;-89
2023/12/07 01:00:10;;;;;;;;;;;;;;;25.51;41.94;94375.28;4981414;28;9004;-88
2023/12/07 01:02:51;;;;;;;;;;;;;;;25.51;41.70;94378.78;4997997;28;9162;-89
2023/12/07 01:05:19;;;;;;;;;;;;;;;25.51;41.80;94381.53;4994629;28;7266;-88
2023/12/07 01:07:48;;;;;;;;;;;;;;;25.52;41.56;94377.50;4978221;28;9042;-89
2023/12/07 01:10:19;;;;;;;;;;;;;;;25.50;41.40;94369.00;4996221;28;9077;-88
2023/12/07 01:12:47;;;;;;;;;;;;;;;25.48;41.97;94376.28;4983128;28;8703;-89
2023/12/07 01:15:14;;;;;;;;;;;;;;;25.47;41.60;94369.31;4996120;28;8728;-89
2023/12/07 01:17:40;;;;;;;;;;;;;;;25.49;42.06;94381.28;4998591;28;8740;-89
2023/12/07 01:20:13;;;;;;;;;;;;;;;25.46;42.12;94376.06;5000432;28;9117;-88
2023/12/07 01:22:41;;;;;;;;;;;;;;;25.46;41.53;94374.06;4978029;28;8969;-88
2023/12/07 01:25:07;;;;;;;;;;;;;;;25.42;41.26;94373.59;4991375;28;8841;-87
2023/12/07 01:27:34;;;;;;;;;;;;;;;25.43;41.31;94375.81;4987894;28;8759;-88
2023/12/07 01:30:03;;;;;;;;;;;;;;;25.45;41.58;94385.59;4977797;28;9039;-89
2023/12/07 01:32:34;;;;;;;;;;;;;;;25.49;42.12;94386.78;5000060;28;7116;-89
2023/12/07 01:35:08;;;;;;;;;;;;;;;25.43;41.54;94386.06;4999849;28;9086;-89
2023/12/07 01:37:35;;;;;;;;;;;;;;;25.46;41.40;94396.09;4978171;28;8830;-88
2023/12/07 01:40:09;;;;;;;;;;;;;;;25.47;41.61;94394.09;4995121;28;6987;-89
2023/12/07 01:43:03;;;;;;;;;;;;;;;25.48;41.09;94398.31;4975986;28;9016;-88
2023/12/07 01:45:30;;;;;;;;;;;;;;;25.46;41.55;94396.09;4912682;29;9091;-89
2023/12/07 01:47:58;;;;;;;;;;;;;;;25.47;41.54;94397.56;4915646;29;7277;-88
2023/12/07 01:50:26;;;;;;;;;;;;;;;25.47;41.50;94402.34;4912318;29;8781;-89
2023/12/07 01:52:59;;;;;;;;;;;;;;;25.44;41.61;94401.34;4911843;29;7010;-89
2023/12/07 01:55:30;;;;;;;;;;;;;;;25.47;41.12;94402.34;4898774;29;8467;-88
2023/12/07 01:58:06;;;;;;;;;;;;;;;25.46;41.40;94409.09;4909622;29;7111;-89
2023/12/07 02:00:34;;;;;;;;;;;;;;;25.43;41.45;94403.34;4906886;29;9176;-88
2023/12/07 02:03:05;;;;;;;;;;;;;;;25.45;41.40;94411.09;4914127;29;8999;-89
2023/12/07 02:05:45;;;;;;;;;;;;;;;25.44;41.91;94406.88;4911236;29;7605;-88
2023/12/07 02:08:12;;;;;;;;;;;;;;;25.43;41.11;94406.09;4909821;29;9344;-87
2023/12/07 02:10:39;;;;;;;;;;;;;;;25.45;41.64;94413.13;4919265;29;8727;-87
2023/12/07 02:13:08;;;;;;;;;;;;;;;25.45;41.48;94407.63;4929955;29;8739;-87
2023/12/07 02:15:44;;;;;;;;;;;;;;;25.44;41.32;94404.09;4902762;29;8993;-87
2023/12/07 02:18:17;;;;;;;;;;;;;;;25.46;40.97;94409.09;4924623;29;7099;-87
2023/12/07 02:21:04;;;;;;;;;;;;;;;25.43;41.75;94395.09;4923414;29;7326;-87
2023/12/07 02:23:35;;;;;;;;;;;;;;;25.44;41.75;94393.09;4989764;28;9046;-87
2023/12/07 02:26:13;;;;;;;;;;;;;;;25.43;41.52;94394.34;4991341;28;9226;-87
2023/12/07 02:28:39;;;;;;;;;;;;;;;25.41;41.00;94389.31;4987069;28;8864;-87
2023/12/07 02:31:05;;;;;;;;;;;;;;;25.41;41.43;94391.31;4982828;28;9399;-87
2023/12/07 02:33:32;;;;;;;;;;;;;;;25.43;41.31;94397.09;4994947;28;9074;-87
2023/12/07 02:36:00;;;;;;;;;;;;;;;25.39;41.52;94396.59;4976215;28;7311;-87
2023/12/07 02:38:28;;;;;;;;;;;;;;;25.43;41.31;94402.59;4975286;28;9273;-87
2023/12/07 02:41:04;;;;;;;;;;;;;;;25.40;40.98;94398.09;4991534;28;8597;-87
2023/12/07 02:43:31;;;;;;;;;;;;;;;25.41;40.81;94400.34;4986961;28;8976;-87
2023/12/07 02:45:58;;;;;;;;;;;;;;;25.38;41.62;94397.88;4993102;28;8702;-86
2023/12/07 02:48:24;;;;;;;;;;;;;;;25.38;41.51;94395.09;4997404;28;7159;-86
2023/12/07 02:50:52;;;;;;;;;;;;;;;25.41;41.17;94405.09;4975980;28;8961;-87
2023/12/07 02:53:19;;;;;;;;;;;;;;;25.39;40.82;94397.34;4991392;28;7317;-87
2023/12/07 02:55:52;;;;;;;;;;;;;;;25.37;41.34;94399.84;4993323;28;8790;-87
2023/12/07 02:58:20;;;;;;;;;;;;;;;25.31;41.62;94398.38;4993065;28;7297;-87
2023/12/07 03:01:13;;;;;;;;;;;;;;;25.37;40.89;94399.09;5001909;28;8593;-87
2023/12/07 03:03:48;;;;;;;;;;;;;;;25.41;40.99;94399.56;4915392;29;6984;-87
2023/12/07 03:06:26;;;;;;;;;;;;;;;25.40;40.99;94398.81;4925579;29;10063;-87
2023/12/07 03:09:24;;;;;;;;;;;;;;;25.41;41.02;94400.34;4913623;29;8990;-87
2023/12/07 03:11:51;;;;;;;;;;;;;;;25.35;41.44;94390.59;4860319;29;8823;-87
2023/12/07 03:14:19;;;;;;;;;;;;;;;25.40;41.03;94392.59;4874003;29;6997;-88
2023/12/07 03:16:54;;;;;;;;;;;;;;;25.39;41.31;94399.34;4858309;29;8945;-89
2023/12/07 03:19:20;;;;;;;;;;;;;;;25.35;40.83;94385.84;4868224;29;7177;-88
2023/12/07 03:21:48;;;;;;;;;;;;;;;25.37;40.83;94388.09;4875818;29;7007;-89
2023/12/07 03:24:23;;;;;;;;;;;;;;;25.38;41.44;94387.56;4852104;29;7583;-88
2023/12/07 03:26:49;;;;;;;;;;;;;;;25.41;40.80;94391.31;4855230;29;8893;-88
2023/12/07 03:29:17;;;;;;;;;;;;;;;25.42;41.29;94393.59;4855522;29;7236;-89
2023/12/07 03:31:44;;;;;;;;;;;;;;;25.42;41.22;94395.59;4860918;29;7311;-89
2023/12/07 03:34:10;;;;;;;;;;;;;;;25.41;41.03;94388.56;4857236;29;8712;-89
2023/12/07 03:36:47;;;;;;;;;;;;;;;25.39;41.17;94402.09;4870182;29;8705;-88
2023/12/07 03:39:22;;;;;;;;;;;;;;;25.43;40.95;94402.59;4859531;29;7239;-89
2023/12/07 03:41:48;;;;;;;;;;;;;;;25.43;41.13;94402.59;4914391;29;9015;-88
2023/12/07 03:44:26;;;;;;;;;;;;;;;25.43;40.96;94400.59;4914542;29;8713;-89
2023/12/07 03:46:54;;;;;;;;;;;;;;;25.42;41.02;94396.34;4931169;28;7075;-89
2023/12/07 03:49:21;;;;;;;;;;;;;;;25.42;41.29;94398.38;4975069;28;7518;-89
2023/12/07 03:51:47;;;;;;;;;;;;;;;25.41;40.58;94392.06;4994236;28;9029;-89
2023/12/07 03:54:19;;;;;;;;;;;;;;;25.41;40.89;94391.31;4991221;28;6860;-88
2023/12/07 03:56:46;;;;;;;;;;;;;;;25.42;41.19;94390.09;4983906;28;8671;-89
2023/12/07 03:59:12;;;;;;;;;;;;;;;25.37;40.63;94383.34;4997275;28;9006;-89
2023/12/07 04:01:39;;;;;;;;;;;;;;;25.35;40.66;94383.09;4978362;28;7268;-89
2023/12/07 04:04:06;;;;;;;;;;;;;;;25.45;41.05;94396.59;4994844;28;8779;-88
2023/12/07 04:06:32;;;;;;;;;;;;;;;25.37;40.96;94393.59;4978065;28;9335;-89
2023/12/07 04:08:59;;;;;;;;;;;;;;;25.40;41.04;94398.81;4996135;28;9100;-89
2023/12/07 04:11:27;;;;;;;;;;;;;;;25.43;40.51;94397.84;4994127;28;8911;-89
2023/12/07 04:13:54;;;;;;;;;;;;;;;25.40;40.85;94403.59;4975614;28;8806;-89
2023/12/07 04:16:22;;;;;;;;;;;;;;;25.36;40.25;94392.09;4982015;28;8861;-89
2023/12/07 04:18:50;;;;;;;;;;;;;;;25.40;41.11;94403.59;4989791;28;9000;-88
2023/12/07 04:21:16;;;;;;;;;;;;;;;25.41;40.84;94407.84;4977688;28;9047;-88
2023/12/07 04:23:44;;;;;;;;;;;;;;;25.37;41.14;94404.63;5005191;28;9126;-85
2023/12/07 04:26:10;;;;;;;;;;;;;;;25.36;40.03;94405.84;4977576;28;8731;-85
2023/12/07 04:28:37;;;;;;;;;;;;;;;25.44;40.68;94409.63;4996152;28;7078;-86
2023/12/07 04:31:04;;;;;;;;;;;;;;;25.39;40.47;94397.34;4978667;28;7045;-85
2023/12/07 04:33:34;;;;;;;;;;;;;;;25.43;40.95;94402.59;4990848;28;9079;-85
2023/12/07 04:36:04;;;;;;;;;;;;;;;25.42;40.84;94403.88;4999038;28;7330;-85
2023/12/07 04:38:34;;;;;;;;;;;;;;;25.36;40.85;94389.34;4985833;28;9023;-85
2023/12/07 04:41:01;;;;;;;;;;;;;;;25.38;40.84;94400.63;4996726;28;7037;-85
2023/12/07 04:43:28;;;;;;;;;;;;;;;25.38;40.88;94395.84;4994240;28;7036;-85
2023/12/07 04:45:55;;;;;;;;;;;;;;;25.40;40.44;94400.84;4984144;28;6995;-86
2023/12/07 04:48:21;;;;;;;;;;;;;;;25.40;40.85;94403.59;4997300;28;9026;-85
2023/12/07 04:50:48;;;;;;;;;;;;;;;25.42;40.33;94407.34;5003189;28;9130;-85
2023/12/07 04:53:15;;;;;;;;;;;;;;;25.34;40.64;94386.34;4984084;28;7273;-85
2023/12/07 04:55:50;;;;;;;;;;;;;;;25.41;40.87;94405.84;4996318;28;8528;-85
2023/12/07 04:58:25;;;;;;;;;;;;;;;25.38;40.38;94389.59;4983662;28;7197;-85
2023/12/07 05:00:51;;;;;;;;;;;;;;;25.37;40.43;94388.84;5000241;28;8671;-85
2023/12/07 05:03:18;;;;;;;;;;;;;;;25.37;40.79;94388.84;4976553;28;8727;-86
2023/12/07 05:05:49;;;;;;;;;;;;;;;25.42;40.50;94398.38;5004518;28;8791;-85
2023/12/07 05:08:15;;;;;;;;;;;;;;;25.39;40.95;94389.09;5000916;28;9050;-86
2023/12/07 05:10:55;;;;;;;;;;;;;;;25.39;40.41;94374.56;4988829;28;7094;-86
2023/12/07 05:13:27;;;;;;;;;;;;;;;25.38;40.73;94373.06;4978142;28;9346;-86
2023/12/07 05:15:57;;;;;;;;;;;;;;;25.38;40.53;94384.81;4985406;28;8933;-84
2023/12/07 05:18:34;;;;;;;;;;;;;;;25.41;40.32;94383.06;4985454;28;7036;-85
2023/12/07 05:21:02;;;;;;;;;;;;;;;25.41;40.82;94383.06;4998057;28;8753;-85
2023/12/07 05:23:30;;;;;;;;;;;;;;;25.39;40.54;94369.06;5005369;28;6907;-85
2023/12/07 05:26:00;;;;;;;;;;;;;;;25.37;40.38;94388.09;4993935;28;8682;-85
2023/12/07 05:28:26;;;;;;;;;;;;;;;25.39;40.56;94380.06;4981668;28;7346;-84
2023/12/07 05:30:56;;;;;;;;;;;;;;;25.39;40.15;94382.81;4997030;28;9025;-85
2023/12/07 05:33:34;;;;;;;;;;;;;;;25.42;40.38;94387.34;4996971;28;8781;-87
2023/12/07 05:36:03;;;;;;;;;;;;;;;25.42;40.26;94384.59;4977036;28;9036;-88
2023/12/07 05:38:31;;;;;;;;;;;;;;;25.36;40.75;94370.81;5004460;28;7307;-88
2023/12/07 05:41:07;;;;;;;;;;;;;;;25.42;40.43;94374.31;4980362;28;9009;-87
2023/12/07 05:43:35;;;;;;;;;;;;;;;25.40;40.64;94374.03;4975345;28;8585;-87
2023/12/07 05:46:02;;;;;;;;;;;;;;;25.39;40.69;94374.56;4990043;28;6870;-87
2023/12/07 05:48:33;;;;;;;;;;;;;;;25.42;40.14;94374.31;4990373;28;7089;-87
2023/12/07 05:51:02;;;;;;;;;;;;;;;25.41;40.26;94372.03;4994130;28;7263;-87
2023/12/07 05:53:28;;;;;;;;;;;;;;;25.41;40.43;94372.78;4993198;28;7448;-86
2023/12/07 05:56:46;;;;;;;;;;;;;;;25.48;40.14;94379.03;5049193;28;6716;-59
2023/12/07 05:59:47;;;;;;;;;;;;;;;25.48;40.90;94381.78;5026739;28;7273;-59
2023/12/07 06:02:22;;;;;;;;;;;;;;;25.47;41.57;94380.31;5028678;28;9392;-59
2023/12/07 06:04:49;;;;;;;;;;;;;;;25.51;40.61;94381.53;5024068;28;9405;-59
2023/12/07 06:07:30;;;;;;;;;;;;;;;25.59;41.33;94381.72;5026621;28;7288;-59
2023/12/07 06:10:28;;;;;;;;;;;;;;;25.62;40.85;94384.19;5021074;28;9085;-59
2023/12/07 06:13:00;;;;;;;;;;;;;;;25.64;40.48;94378.19;5010937;28;7118;-59
2023/12/07 06:15:31;;;;;;;;;;;;;;;25.67;40.78;94379.91;5005916;28;7142;-58
2023/12/07 06:17:58;;;;;;;;;;;;;;;25.68;40.54;94384.19;5000864;28;8588;-59
2023/12/07 06:24:24;;;;;;;;;;;;;;;25.68;40.18;94373.91;5016322;28;7239;-59
2023/12/07 06:26:51;;;;;;;;;;;;;;;25.68;39.97;94371.16;5023546;28;9018;-59
2023/12/07 06:29:52;;;;;;;;;;;;;;;25.72;40.33;94379.88;5015087;28;7050;-59
2023/12/07 06:32:29;;;;;;;;;;;;;;;25.73;40.16;94375.13;5019487;28;7657;-59
2023/12/07 06:35:06;;;;;;;;;;;;;;;25.70;39.19;94368.63;4994481;28;7249;-59
2023/12/07 06:37:36;;;;;;;;;;;;;;;25.66;38.68;94379.19;5013900;28;7032;-59
2023/12/07 06:40:27;;;;;;;;;;;;;;;25.69;39.45;94382.91;5016888;28;7600;-59
2023/12/07 06:43:03;;;;;;;;;;;;;;;25.72;38.56;94384.66;5022380;28;9190;-59
2023/12/07 06:46:01;;;;;;;;;;;;;;;25.73;38.43;94381.38;5006711;28;7347;-53
2023/12/07 06:48:28;;;;;;;;;;;;;;;25.70;38.89;94384.41;5011265;28;7930;-53
2023/12/07 06:51:07;;;;;;;;;;;;;;;25.43;30.67;94386.84;5025859;28;7241;-53
2023/12/07 06:53:53;;;;;;;;;;;;;;;24.98;30.60;94410.31;5013203;28;8048;-52
2023/12/07 06:56:20;;;;;;;;;;;;;;;24.76;29.27;94407.63;5020803;28;7307;-53
2023/12/07 06:59:03;;;;;;;;;;;;;;;24.73;28.27;94387.34;5041247;28;7001;-54
2023/12/07 07:01:31;;;;;;;;;;;;;;;24.80;27.08;94385.34;5043481;28;7302;-53
2023/12/07 07:04:32;;;;;;;;;;;;;;;24.90;27.30;94383.81;5041548;28;7319;-53
2023/12/07 07:07:14;;;;;;;;;;;;;;;25.00;28.13;94396.78;5028824;28;7241;-53
2023/12/07 07:09:51;;;;;;;;;;;;;;;25.04;29.19;94382.75;5029389;28;9555;-53
2023/12/07 07:12:29;;;;;;;;;;;;;;;25.10;28.31;94391.75;5016103;28;7225;-53
2023/12/07 07:15:25;;;;;;;;;;;;;;;25.15;27.77;94377.19;5043312;28;7155;-54
2023/12/07 07:17:57;;;;;;;;;;;;;;;25.17;28.63;94374.69;5026742;28;6948;-53
2023/12/07 07:20:35;;;;;;;;;;;;;;;25.22;29.22;94388.44;5011633;28;7088;-54
2023/12/07 07:23:23;;;;;;;;;;;;;;;25.26;29.93;94394.41;5011249;28;9159;-53
2023/12/07 07:25:50;;;;;;;;;;;;;;;25.29;29.95;94395.41;5010089;28;6998;-54
2023/12/07 07:28:49;;;;;;;;;;;;;;;25.29;30.10;94387.13;5015828;28;7167;-54
2023/12/07 07:31:18;;;;;;;;;;;;;;;25.30;30.91;94388.63;4939046;28;7240;-54
2023/12/07 07:34:25;;;;;;;;;;;;;;;25.34;30.38;94378.09;4950164;28;7343;-54
2023/12/07 07:37:23;;;;;;;;;;;;;;;25.38;31.05;94384.09;4938540;28;6986;-54
2023/12/07 07:40:09;;;;;;;;;;;;;;;25.39;31.50;94383.56;4925905;28;7304;-54
2023/12/07 07:42:45;;;;;;;;;;;;;;;25.41;31.13;94383.81;4928344;29;7088;-54
2023/12/07 07:45:24;;;;;;;;;;;;;;;25.40;31.00;94376.06;4916794;29;7255;-54
2023/12/07 07:48:29;;;;;;;;;;;;;;;25.44;31.77;94376.56;4924895;28;7404;-54
2023/12/07 07:51:42;;;;;;;;;;;;;;;25.46;31.17;94381.56;4908069;29;7260;-53
2023/12/07 07:54:34;;;;;;;;;;;;;;;25.46;31.35;94374.06;4859633;29;8950;-54
2023/12/07 07:57:08;;;;;;;;;;;;;;;25.46;31.99;94374.06;4854791;29;7254;-59
2023/12/07 07:59:35;;;;;;;;;;;;;;;25.47;32.68;94370.03;4860436;29;7268;-59
2023/12/07 08:02:01;;;;;;;;;;;;;;;25.48;32.16;94368.03;4842833;29;8974;-59
2023/12/07 08:04:32;;;;;;;;;;;;;;;25.48;32.41;94366.03;4860341;29;7256;-59
2023/12/07 08:07:15;;;;;;;;;;;;;;;25.49;32.08;94361.28;4870244;29;7590;-59
2023/12/07 08:09:41;;;;;;;;;;;;;;;25.51;33.25;94372.53;4862829;29;8234;-59
2023/12/07 08:12:11;;;;;;;;;;;;;;;25.52;32.96;94365.75;4862495;29;7172;-59
2023/12/07 08:14:42;;;;;;;;;;;;;;;25.52;32.31;94369.25;4873265;29;6899;-59
2023/12/07 08:17:28;;;;;;;;;;;;;;;25.53;33.43;94379.03;4948427;28;7403;-60
2023/12/07 08:19:55;;;;;;;;;;;;;;;25.53;32.48;94373.50;4933587;29;7008;-59
2023/12/07 08:22:30;;;;;;;;;;;;;;;25.52;32.54;94374.00;4949278;28;7236;-59
2023/12/07 08:25:00;;;;;;;;;;;;;;;25.54;33.07;94363.97;4932437;29;7750;-59
2023/12/07 08:27:25;;;;;;;;;;;;;;;25.59;33.14;94367.97;4932637;28;7403;-59
2023/12/07 08:29:55;;;;;;;;;;;;;;;25.58;32.95;94355.47;4935944;28;7050;-59
2023/12/07 08:32:21;;;;;;;;;;;;;;;25.60;33.31;94361.19;5009728;28;7008;-59
2023/12/07 08:34:58;;;;;;;;;;;;;;;25.58;33.24;94361.69;5028148;28;7217;-59
2023/12/07 08:37:48;;;;;;;;;;;;;;;25.61;33.96;94363.44;5034817;28;7257;-59
2023/12/07 08:40:23;;;;;;;;;;;;;;;25.62;33.75;94362.16;5004208;28;9111;-59
2023/12/07 08:43:10;;;;;;;;;;;;;;;25.61;33.37;94357.94;5012692;28;8732;-59
2023/12/07 08:45:46;;;;;;;;;;;;;;;25.59;33.88;94354.19;5014123;28;7334;-59
2023/12/07 08:48:12;;;;;;;;;;;;;;;25.59;33.74;94352.19;5018536;28;9017;-59
2023/12/07 08:50:39;;;;;;;;;;;;;;;25.63;34.40;94351.91;5012194;28;7069;-59
2023/12/07 08:53:46;;;;;;;;;;;;;;;25.64;33.67;94345.91;5028765;28;7443;-59
2023/12/07 08:56:14;;;;;;;;;;;;;;;25.65;34.54;94344.63;5013101;28;7231;-59
2023/12/07 08:59:15;;;;;;;;;;;;;;;25.66;34.65;94346.13;5028242;28;7089;-59
2023/12/07 09:01:49;;;;;;;;;;;;;;;25.66;34.62;94346.13;4960519;28;9175;-59
2023/12/07 09:04:40;;;;;;;;;;;;;;;25.69;34.70;94341.56;4945630;28;7336;-59
2023/12/07 09:07:15;;;;;;;;;;;;;;;25.68;34.15;94329.84;4952253;28;7220;-59
2023/12/07 09:09:54;;;;;;;;;;;;;;;25.69;34.53;94320.28;4934553;28;7497;-59
2023/12/07 09:12:20;;;;;;;;;;;;;;;25.73;34.97;94323.53;4969297;28;9096;-60
2023/12/07 09:14:46;;;;;;;;;;;;;;;25.71;34.57;94330.81;4955491;28;7232;-60
2023/12/07 09:17:18;;;;;;;;;;;;;;;25.73;35.27;94331.78;4948976;28;7314;-59
2023/12/07 09:19:53;;;;;;;;;;;;;;;25.76;35.00;94336.28;4953291;28;7146;-59
2023/12/07 09:22:33;;;;;;;;;;;;;;;25.78;34.61;94338.50;4954826;28;7161;-59
2023/12/07 09:24:59;;;;;;;;;;;;;;;25.79;35.44;94346.28;4951849;28;7270;-60
2023/12/07 09:27:27;;;;;;;;;;;;;;;25.80;35.12;94352.53;4952842;28;7297;-60
2023/12/07 09:29:59;;;;;;;;;;;;;;;25.77;35.46;94346.06;4974250;28;7184;-59
2023/12/07 09:32:28;;;;;;;;;;;;;;;25.79;35.12;94354.53;4949128;28;7168;-60
2023/12/07 09:34:56;;;;;;;;;;;;;;;25.79;35.79;94351.78;4955072;28;7058;-60
2023/12/07 09:37:23;;;;;;;;;;;;;;;25.77;34.74;94340.53;4976235;28;9235;-60
2023/12/07 09:39:53;;;;;;;;;;;;;;;25.80;35.54;94339.50;5015793;28;8929;-59
2023/12/07 09:42:20;;;;;;;;;;;;;;;25.80;35.43;94336.00;5032256;28;8067;-59
2023/12/07 09:44:45;;;;;;;;;;;;;;;25.79;35.21;94326.25;5011477;28;7452;-59
2023/12/07 09:47:12;;;;;;;;;;;;;;;25.80;35.82;94339.50;5009871;28;7159;-59
2023/12/07 09:49:45;;;;;;;;;;;;;;;25.82;36.02;94344.47;5028073;28;6967;-59
2023/12/07 09:52:14;;;;;;;;;;;;;;;25.83;35.46;94334.97;5010259;28;9265;-59
2023/12/07 09:54:47;;;;;;;;;;;;;;;25.80;35.31;94328.47;5021356;28;7268;-60
2023/12/07 09:57:13;;;;;;;;;;;;;;;25.79;35.75;94324.25;5018745;28;7225;-60
2023/12/07 09:59:40;;;;;;;;;;;;;;;25.79;35.44;94324.25;5022013;28;6996;-59
2023/12/07 10:02:07;;;;;;;;;;;;;;;25.79;35.99;94315.97;5009031;28;8901;-59
2023/12/07 10:04:41;;;;;;;;;;;;;;;25.86;36.10;94320.19;5037850;28;8442;-59
2023/12/07 10:07:09;;;;;;;;;;;;;;;25.87;35.68;94318.91;5009304;28;6996;-60
2023/12/07 10:09:40;;;;;;;;;;;;;;;25.88;35.60;94314.91;5011808;28;7310;-60
2023/12/07 10:12:08;;;;;;;;;;;;;;;25.91;35.84;94311.84;5014656;28;7261;-60
2023/12/07 10:14:43;;;;;;;;;;;;;;;25.90;35.62;94315.13;5036068;28;7231;-59
2023/12/07 10:17:18;;;;;;;;;;;;;;;25.95;35.82;94315.06;5012087;28;8948;-54
2023/12/07 10:20:08;;;;;;;;;;;;;;;25.95;35.89;94298.53;5011495;28;7257;-54
2023/12/07 10:23:04;;;;;;;;;;;;;;;26.02;35.83;94286.19;5024545;28;7311;-54
2023/12/07 10:25:37;;;;;;;;;;;;;;;26.00;36.32;94272.19;5025708;28;7602;-54
2023/12/07 10:28:06;;;;;;;;;;;;;;;26.00;36.15;94272.94;5007386;28;7242;-54
2023/12/07 10:30:35;;;;;;;;;;;;;;;26.00;35.80;94267.44;4992026;28;7291;-55
2023/12/07 10:33:21;;;;;;;;;;;;;;;26.01;36.42;94268.19;4991412;28;6988;-54
2023/12/07 10:36:09;;;;;;;;;;;;;;;26.01;35.94;94262.66;5006635;28;7005;-55
2023/12/07 10:38:41;;;;;;;;;;;;;;;26.05;36.18;94265.88;4991821;28;8295;-55
2023/12/07 10:41:20;;;;;;;;;;;;;;;26.04;36.48;94267.88;5005323;28;7456;-55
2023/12/07 10:44:08;;;;;;;;;;;;;;;26.04;36.01;94267.88;5011663;28;7646;-54
2023/12/07 10:46:59;;;;;;;;;;;;;;;26.07;36.35;94261.34;5006727;28;9108;-55
2023/12/07 10:49:27;;;;;;;;;;;;;;;26.07;36.58;94266.09;4996498;28;7418;-55
2023/12/07 10:52:27;;;;;;;;;;;;;;;26.08;35.88;94273.09;4997637;28;7604;-55
2023/12/07 10:54:56;;;;;;;;;;;;;;;26.04;35.85;94269.88;4940817;28;9189;-55
2023/12/07 10:57:37;;;;;;;;;;;;;;;26.02;36.88;94270.41;4931414;28;9093;-54
2023/12/07 11:00:04;;;;;;;;;;;;;;;26.03;36.14;94266.38;4945746;28;7079;-55
2023/12/07 11:02:54;;;;;;;;;;;;;;;26.05;36.22;94266.63;4926324;29;6961;-54
2023/12/07 11:05:30;;;;;;;;;;;;;;;26.07;36.46;94260.59;4934849;29;7280;-55
2023/12/07 11:08:28;;;;;;;;;;;;;;;26.08;36.75;94257.34;4920039;29;9190;-55
2023/12/07 11:11:48;;;;;;;;;;;;;;;26.08;36.61;94262.84;4932655;29;7189;-54
2023/12/07 11:14:18;;;;;;;;;;;;;;;26.09;36.76;94269.13;4933800;28;7205;-54
2023/12/07 11:16:53;;;;;;;;;;;;;;;26.08;36.39;94262.84;4916506;29;7183;-54
2023/12/07 11:19:36;;;;;;;;;;;;;;;26.10;36.09;94267.84;4918896;29;7000;-55
2023/12/07 11:22:04;;;;;;;;;;;;;;;26.10;36.83;94262.31;4935203;29;9032;-54
2023/12/07 11:24:32;;;;;;;;;;;;;;;26.08;36.89;94257.34;4934526;29;10076;-54
2023/12/07 11:27:13;;;;;;;;;;;;;;;26.12;36.50;94246.78;4936065;29;8763;-54
2023/12/07 11:29:40;;;;;;;;;;;;;;;26.15;36.71;94243.00;4954988;28;9127;-54
2023/12/07 11:32:34;;;;;;;;;;;;;;;26.17;36.60;94243.22;5031334;28;6988;-54
2023/12/07 11:35:38;;;;;;;;;;;;;;;26.20;36.54;94246.94;5000832;28;7411;-54
2023/12/07 11:38:15;;;;;;;;;;;;;;;26.21;37.32;94233.91;4988965;28;7078;-53
2023/12/07 11:40:57;;;;;;;;;;;;;;;26.24;36.73;94227.34;5006910;28;8840;-54
2023/12/07 11:43:32;;;;;;;;;;;;;;;26.23;37.04;94231.38;5014826;28;7247;-54
2023/12/07 11:46:00;;;;;;;;;;;;;;;26.23;37.33;94217.59;4977015;28;7267;-54
2023/12/07 11:49:10;;;;;;;;;;;;;;;26.26;37.23;94209.03;4975967;28;7213;-54
2023/12/07 11:51:55;;;;;;;;;;;;;;;26.28;36.67;94197.47;4998012;28;8402;-54
2023/12/07 11:54:32;;;;;;;;;;;;;;;26.30;36.93;94192.19;4994393;28;7355;-54
2023/12/07 11:57:06;;;;;;;;;;;;;;;26.31;36.75;94186.16;4993837;28;7019;-54
2023/12/07 11:59:45;;;;;;;;;;;;;;;26.32;36.54;94189.69;4973275;28;7082;-54
2023/12/07 12:02:13;;;;;;;;;;;;;;;26.30;36.19;94176.38;4991819;28;7222;-54
2023/12/07 12:04:40;;;;;;;;;;;;;;;26.32;36.18;94181.41;4959240;28;7224;-54
2023/12/07 12:07:18;;;;;;;;;;;;;;;26.33;35.76;94166.34;4968852;28;7263;-54
2023/12/07 12:09:45;;;;;;;;;;;;;;;26.33;35.63;94167.09;4983279;28;7063;-54
2023/12/07 12:12:22;;;;;;;;;;;;;;;26.32;35.88;94162.81;4991678;28;7469;-53
2023/12/07 12:14:51;;;;;;;;;;;;;;;26.34;35.50;94151.28;5004667;28;7145;-54
2023/12/07 12:17:22;;;;;;;;;;;;;;;26.34;35.91;94137.50;5010584;28;8208;-53
2023/12/07 12:19:57;;;;;;;;;;;;;;;26.39;35.81;94145.69;4985667;28;7320;-54
2023/12/07 12:22:24;;;;;;;;;;;;;;;26.40;35.54;94143.69;5013347;28;7355;-54
2023/12/07 12:24:56;;;;;;;;;;;;;;;26.40;35.89;94135.41;5011402;28;7337;-54
2023/12/07 12:27:24;;;;;;;;;;;;;;;26.41;36.33;94134.88;5012070;28;7397;-54
2023/12/07 12:30:06;;;;;;;;;;;;;;;26.42;35.97;94132.88;5012992;28;7001;-53
2023/12/07 12:33:00;;;;;;;;;;;;;;;26.47;35.78;94130.03;5008352;28;7619;-54
2023/12/07 12:36:06;;;;;;;;;;;;;;;26.51;36.02;94121.47;5013335;28;7728;-61
2023/12/07 12:38:36;;;;;;;;;;;;;;;26.52;36.30;94128.47;5023491;28;9002;-60
2023/12/07 12:41:05;;;;;;;;;;;;;;;26.50;35.64;94125.50;5028191;28;8718;-60
2023/12/07 12:43:44;;;;;;;;;;;;;;;26.55;35.71;94135.69;5012585;28;7629;-61
2023/12/07 12:46:17;;;;;;;;;;;;;;;26.56;35.21;94145.44;5008214;28;7798;-61
2023/12/07 12:49:16;;;;;;;;;;;;;;;26.56;35.21;94131.66;5033112;28;7239;-61
2023/12/07 12:51:44;;;;;;;;;;;;;;;26.58;34.58;94142.91;5010973;28;7147;-60
2023/12/07 12:54:34;;;;;;;;;;;;;;;26.57;33.54;94135.94;5027758;28;7285;-61
2023/12/07 12:57:36;;;;;;;;;;;;;;;26.53;32.39;94147.28;5045034;28;7273;-61
2023/12/07 13:00:08;;;;;;;;;;;;;;;26.45;32.56;94137.34;5004344;28;8744;-61
2023/12/07 13:02:38;;;;;;;;;;;;;;;26.47;32.71;94154.84;5012874;28;8822;-61
2023/12/07 13:05:08;;;;;;;;;;;;;;;26.45;32.87;94145.59;5026131;28;7238;-61
2023/12/07 13:07:36;;;;;;;;;;;;;;;26.41;32.52;94139.66;5010828;28;7238;-61
2023/12/07 13:10:03;;;;;;;;;;;;;;;26.39;32.77;94136.66;5022670;28;7248;-61
2023/12/07 13:12:36;;;;;;;;;;;;;;;26.41;33.45;94140.41;5027865;28;8867;-61
2023/12/07 13:15:07;;;;;;;;;;;;;;;26.40;33.31;94149.97;5008058;28;7266;-61
2023/12/07 13:17:35;;;;;;;;;;;;;;;26.40;33.63;94151.97;5012336;28;7015;-61
2023/12/07 13:20:02;;;;;;;;;;;;;;;26.41;33.58;94151.44;5027483;28;9707;-61
2023/12/07 13:22:41;;;;;;;;;;;;;;;26.40;33.69;94143.69;5028598;28;8137;-61
2023/12/07 13:25:14;;;;;;;;;;;;;;;26.37;33.71;94139.22;5025759;28;7469;-61
2023/12/07 13:27:42;;;;;;;;;;;;;;;26.39;33.61;94147.69;5013218;28;7049;-60
2023/12/07 13:30:29;;;;;;;;;;;;;;;26.38;33.93;94137.94;5011524;28;7234;-61
2023/12/07 13:33:04;;;;;;;;;;;;;;;26.38;34.27;94148.97;5043231;28;7258;-61
2023/12/07 13:35:29;;;;;;;;;;;;;;;26.35;34.36;94159.03;5012134;28;8791;-61
2023/12/07 13:38:02;;;;;;;;;;;;;;;26.36;34.99;94165.31;5028836;28;7267;-61